sim
Sign-in with your pilot id or email,
or register
Callsign
Passwort

Schedule Details

Flight Number: OEO7890
Departure: Leipzig Halle Airport (EDDP) at 10:30
Arrival: Fuerteventura Airport (GCFV) at 15:55

Weather Information
Getting current METAR information for EDDP 172320Z 21009KT 9999 FEW036 20/14 Q1010 NOSIG
Getting current METAR information for GCFV 172300Z AUTO 03003KT 010V070 9000 4200S NSC 23/20 Q1014

Schedule Frequency

Route Map